createdAt,value
2018-06-04T00:00:04.809Z,18.66
2018-06-04T00:01:05.523Z,18.77
2018-06-04T00:02:06.239Z,18.70
2018-06-04T00:03:06.952Z,18.65
2018-06-04T00:04:07.679Z,18.70
2018-06-04T00:05:08.391Z,18.63
2018-06-04T00:06:09.121Z,18.58
2018-06-04T00:08:25.421Z,18.65
2018-06-04T00:09:26.135Z,18.58
2018-06-04T00:10:26.863Z,18.47
2018-06-04T00:11:27.580Z,18.50
2018-06-04T00:12:28.297Z,18.56
2018-06-04T00:13:29.012Z,18.47
2018-06-04T00:14:29.727Z,18.44
2018-06-04T00:15:30.441Z,18.41
2018-06-04T00:16:31.158Z,18.53
2018-06-04T00:17:31.883Z,18.49
2018-06-04T00:18:32.597Z,18.43
2018-06-04T00:19:33.310Z,18.49
2018-06-04T00:20:34.025Z,18.44
2018-06-04T00:21:34.740Z,18.40
2018-06-04T00:22:35.455Z,18.40
2018-06-04T00:23:36.181Z,18.40
2018-06-04T00:24:36.894Z,18.44
2018-06-04T00:25:37.610Z,18.38
2018-06-04T00:26:38.335Z,18.45
2018-06-04T00:27:39.052Z,18.40
2018-06-04T00:28:39.778Z,18.35
2018-06-04T00:29:40.491Z,18.35
2018-06-04T00:30:41.206Z,18.41
2018-06-04T00:31:41.918Z,18.38
2018-06-04T00:32:42.636Z,18.26
2018-06-04T00:33:43.356Z,18.26
2018-06-04T00:34:44.083Z,18.26
2018-06-04T00:35:44.808Z,18.29
2018-06-04T00:36:45.533Z,18.28
2018-06-04T00:37:46.247Z,18.18
2018-06-04T00:38:46.961Z,18.19
2018-06-04T00:39:47.674Z,18.20
2018-06-04T00:40:48.401Z,18.16
2018-06-04T00:41:49.119Z,18.22
2018-06-04T00:42:49.830Z,18.15
2018-06-04T00:43:50.544Z,18.15
2018-06-04T00:44:51.260Z,18.11
2018-06-04T00:45:51.984Z,18.10
2018-06-04T00:46:52.698Z,18.00
2018-06-04T00:47:53.412Z,18.05
2018-06-04T00:48:54.125Z,18.07
2018-06-04T00:49:54.857Z,18.01
2018-06-04T00:50:55.578Z,17.98
2018-06-04T00:51:56.302Z,17.98
2018-06-04T00:52:57.019Z,17.95
2018-06-04T00:53:57.742Z,17.87
2018-06-04T00:54:58.455Z,17.83
2018-06-04T00:55:59.168Z,17.87
2018-06-04T00:56:59.881Z,17.86
2018-06-04T00:58:00.598Z,17.86
2018-06-04T00:59:01.324Z,17.89
2018-06-04T01:00:02.040Z,17.90
2018-06-04T01:01:02.764Z,17.92
2018-06-04T01:02:03.478Z,17.86
2018-06-04T01:03:04.190Z,17.86
2018-06-04T01:04:04.917Z,17.85
2018-06-04T01:05:05.630Z,17.85
2018-06-04T01:06:06.358Z,17.87
2018-06-04T01:07:07.084Z,17.85
2018-06-04T01:08:07.798Z,17.90
2018-06-04T01:09:08.522Z,17.83
2018-06-04T01:10:09.237Z,17.89
2018-06-04T01:11:09.962Z,17.87
2018-06-04T01:12:10.676Z,17.83
2018-06-04T01:13:11.404Z,17.85
2018-06-04T01:14:12.119Z,17.78
2018-06-04T01:15:12.837Z,17.82
2018-06-04T01:16:13.551Z,17.83
2018-06-04T01:17:14.267Z,17.82
2018-06-04T01:18:14.991Z,17.83
2018-06-04T01:19:15.706Z,17.87
2018-06-04T01:20:16.420Z,17.78
2018-06-04T01:21:17.147Z,17.80
2018-06-04T01:22:17.859Z,17.83
2018-06-04T01:23:18.586Z,17.87
2018-06-04T01:24:19.303Z,17.87
2018-06-04T01:25:20.029Z,17.89
2018-06-04T01:26:20.752Z,17.83
2018-06-04T01:27:21.466Z,17.83
2018-06-04T01:28:22.179Z,17.85
2018-06-04T01:29:22.892Z,17.83
2018-06-04T01:30:23.608Z,17.68
2018-06-04T01:31:24.332Z,17.76
2018-06-04T01:32:25.047Z,17.78
2018-06-04T01:33:25.761Z,17.87
2018-06-04T01:34:26.476Z,17.82
2018-06-04T01:35:27.190Z,17.83
2018-06-04T01:36:27.904Z,17.80
2018-06-04T01:37:28.632Z,17.78
2018-06-04T01:38:29.346Z,17.80
2018-06-04T01:39:30.072Z,17.74
2018-06-04T01:40:30.808Z,17.76
2018-06-04T01:41:31.503Z,17.82
2018-06-04T01:42:32.217Z,17.79
2018-06-04T01:43:32.931Z,17.80
2018-06-04T01:44:33.646Z,17.76
2018-06-04T01:45:34.361Z,17.76
2018-06-04T01:46:35.076Z,17.78
2018-06-04T01:47:35.792Z,17.71
2018-06-04T01:48:36.515Z,17.76
2018-06-04T01:49:37.240Z,17.65
2018-06-04T01:50:37.957Z,17.76
2018-06-04T01:51:38.681Z,17.74
2018-06-04T01:52:39.393Z,17.70
2018-06-04T01:53:40.107Z,17.64
2018-06-04T01:54:40.820Z,17.65
2018-06-04T01:55:41.534Z,17.64
2018-06-04T01:56:42.248Z,17.63
2018-06-04T01:57:42.963Z,17.57
2018-06-04T01:58:43.676Z,17.60
2018-06-04T01:59:44.388Z,17.60
2018-06-04T02:00:45.107Z,17.52
2018-06-04T02:01:45.827Z,17.48
2018-06-04T02:02:46.542Z,17.46
2018-06-04T02:03:47.254Z,17.51
2018-06-04T02:04:47.980Z,17.45
2018-06-04T02:05:48.707Z,17.45
2018-06-04T02:06:49.422Z,17.46
2018-06-04T02:07:50.137Z,17.49
2018-06-04T02:08:50.862Z,17.46
2018-06-04T02:09:51.578Z,17.33
2018-06-04T02:10:52.287Z,17.44
2018-06-04T02:11:53.001Z,17.39
2018-06-04T02:12:53.724Z,17.39
2018-06-04T02:13:54.437Z,17.31
2018-06-04T02:14:55.163Z,17.38
2018-06-04T02:15:55.881Z,17.31
2018-06-04T02:16:56.591Z,17.34
2018-06-04T02:17:57.317Z,17.27
2018-06-04T02:18:58.033Z,17.29
2018-06-04T02:19:58.747Z,17.20
2018-06-04T02:20:59.463Z,17.27
2018-06-04T02:22:00.177Z,17.26
2018-06-04T02:23:00.891Z,17.29
2018-06-04T02:24:01.615Z,17.29
2018-06-04T02:25:02.341Z,17.24
2018-06-04T02:26:03.056Z,17.23
2018-06-04T02:27:03.767Z,17.26
2018-06-04T02:28:04.480Z,17.30
2018-06-04T02:29:05.197Z,17.16
2018-06-04T02:30:05.909Z,17.24
2018-06-04T02:31:06.623Z,17.20
2018-06-04T02:32:07.336Z,17.15
2018-06-04T02:33:08.050Z,17.14
2018-06-04T02:34:08.771Z,17.16
2018-06-04T02:35:09.492Z,17.14
2018-06-04T02:36:10.209Z,17.14
2018-06-04T02:37:10.923Z,17.14
2018-06-04T02:38:11.641Z,17.19
2018-06-04T02:39:12.364Z,17.11
2018-06-04T02:40:13.075Z,17.08
2018-06-04T02:41:13.788Z,17.08
2018-06-04T02:42:14.501Z,17.14
2018-06-04T02:43:15.236Z,17.05
2018-06-04T02:44:15.952Z,17.12
2018-06-04T02:45:16.673Z,17.11
2018-06-04T02:46:17.389Z,17.12
2018-06-04T02:47:18.103Z,17.06
2018-06-04T02:48:18.817Z,17.05
2018-06-04T02:49:19.533Z,17.02
2018-06-04T02:50:20.257Z,17.12
2018-06-04T02:51:20.974Z,17.05
2018-06-04T02:52:21.688Z,17.20
2018-06-04T02:53:22.415Z,17.09
2018-06-04T02:54:23.130Z,17.06
2018-06-04T02:55:23.841Z,17.08
2018-06-04T02:56:24.569Z,17.06
2018-06-04T02:57:25.284Z,17.09
2018-06-04T02:58:26.010Z,17.01
2018-06-04T02:59:26.737Z,17.09
2018-06-04T03:00:27.450Z,17.05
2018-06-04T03:01:28.164Z,17.06
2018-06-04T03:02:28.879Z,17.02
2018-06-04T03:03:29.595Z,17.11
2018-06-04T03:04:30.307Z,17.11
2018-06-04T03:05:31.021Z,17.05
2018-06-04T03:06:31.735Z,17.02
2018-06-04T03:07:32.465Z,17.11
2018-06-04T03:08:33.189Z,17.08
2018-06-04T03:09:33.916Z,17.08
2018-06-04T03:10:34.630Z,17.02
2018-06-04T03:11:35.346Z,17.06
2018-06-04T03:12:36.062Z,17.02
2018-06-04T03:13:36.777Z,17.08
2018-06-04T03:14:37.493Z,17.02
2018-06-04T03:15:38.212Z,17.01
2018-06-04T03:16:38.939Z,17.04
2018-06-04T03:17:39.657Z,17.02
2018-06-04T03:18:40.375Z,17.08
2018-06-04T03:19:41.095Z,17.02
2018-06-04T03:20:41.820Z,16.96
2018-06-04T03:21:42.539Z,17.02
2018-06-04T03:22:43.253Z,17.01
2018-06-04T03:23:43.970Z,16.90
2018-06-04T03:24:44.689Z,17.02
2018-06-04T03:25:45.413Z,16.97
2018-06-04T03:26:46.130Z,16.99
2018-06-04T03:27:46.848Z,16.93
2018-06-04T03:28:47.565Z,16.99
2018-06-04T03:29:48.284Z,16.89
2018-06-04T03:30:49.001Z,16.90
2018-06-04T03:31:49.723Z,16.86
2018-06-04T03:32:50.448Z,17.02
2018-06-04T03:33:51.176Z,16.97
2018-06-04T03:34:51.951Z,16.96
2018-06-04T03:35:52.608Z,17.08
2018-06-04T03:36:53.344Z,17.04
2018-06-04T03:37:54.067Z,16.99
2018-06-04T03:38:54.784Z,17.01
2018-06-04T03:39:55.501Z,16.99
2018-06-04T03:40:56.218Z,17.04
2018-06-04T03:41:56.935Z,16.93
2018-06-04T03:42:57.662Z,17.04
2018-06-04T03:43:58.379Z,16.99
2018-06-04T03:44:59.094Z,16.97
2018-06-04T03:45:59.824Z,16.99
2018-06-04T03:47:00.539Z,16.99
2018-06-04T03:48:01.270Z,17.06
2018-06-04T03:49:02.000Z,17.01
2018-06-04T03:50:02.712Z,17.11
2018-06-04T03:51:03.441Z,17.02
2018-06-04T03:52:04.228Z,17.08
2018-06-04T03:53:04.876Z,17.11
2018-06-04T03:54:05.600Z,17.04
2018-06-04T03:55:06.312Z,17.08
2018-06-04T03:56:07.027Z,17.09
2018-06-04T03:57:07.744Z,17.06
2018-06-04T03:58:08.471Z,17.16
2018-06-04T03:59:09.190Z,17.19
2018-06-04T04:00:09.920Z,17.14
2018-06-04T04:01:10.640Z,17.12
2018-06-04T04:02:11.368Z,17.14
2018-06-04T04:03:12.085Z,17.22
2018-06-04T04:04:12.816Z,17.20
2018-06-04T04:05:13.545Z,17.19
2018-06-04T04:06:14.264Z,17.20
2018-06-04T04:07:14.997Z,17.20
2018-06-04T04:08:15.765Z,17.26
2018-06-04T04:09:16.439Z,17.24
2018-06-04T04:10:17.162Z,17.30
2018-06-04T04:11:17.880Z,17.34
2018-06-04T04:12:18.610Z,17.39
2018-06-04T04:13:19.329Z,17.33
2018-06-04T04:14:20.047Z,17.30
2018-06-04T04:15:20.765Z,17.34
2018-06-04T04:16:21.483Z,17.36
2018-06-04T04:17:22.202Z,17.38
2018-06-04T04:18:22.923Z,17.46
2018-06-04T04:19:23.678Z,17.49
2018-06-04T04:20:24.356Z,17.41
2018-06-04T04:21:25.087Z,17.44
2018-06-04T04:22:25.805Z,17.41
2018-06-04T04:23:26.521Z,17.54
2018-06-04T04:24:27.248Z,17.45
2018-06-04T04:25:27.966Z,17.56
2018-06-04T04:26:28.684Z,17.56
2018-06-04T04:27:29.403Z,17.64
2018-06-04T04:28:30.123Z,17.64
2018-06-04T04:29:30.852Z,17.65
2018-06-04T04:30:31.571Z,17.67
2018-06-04T04:31:32.289Z,17.67
2018-06-04T04:32:33.022Z,17.70
2018-06-04T04:33:33.741Z,17.72
2018-06-04T04:34:34.459Z,17.78
2018-06-04T04:35:35.178Z,17.79
2018-06-04T04:36:35.898Z,17.72
2018-06-04T04:37:36.616Z,17.65
2018-06-04T04:38:37.335Z,17.80
2018-06-04T04:39:38.052Z,17.83
2018-06-04T04:40:38.771Z,17.80
2018-06-04T04:41:39.489Z,17.86
2018-06-04T04:42:40.219Z,17.80
2018-06-04T04:43:40.939Z,17.85
2018-06-04T04:44:41.677Z,17.89
2018-06-04T04:45:42.389Z,17.89
2018-06-04T04:46:43.128Z,17.86
2018-06-04T04:47:43.826Z,17.92
2018-06-04T04:48:44.545Z,17.89
2018-06-04T04:49:45.275Z,17.83
2018-06-04T04:50:45.993Z,17.86
2018-06-04T04:51:46.724Z,18.01
2018-06-04T04:52:47.444Z,18.01
2018-06-04T04:53:48.159Z,17.98
2018-06-04T04:54:48.876Z,18.08
2018-06-04T04:55:49.602Z,18.00
2018-06-04T04:56:50.316Z,18.08
2018-06-04T04:57:51.039Z,18.11
2018-06-04T04:58:51.753Z,18.13
2018-06-04T04:59:52.473Z,18.22
2018-06-04T05:00:53.192Z,18.22
2018-06-04T05:01:53.909Z,18.28
2018-06-04T05:02:54.631Z,18.28
2018-06-04T05:03:55.358Z,18.41
2018-06-04T05:04:56.078Z,18.40
2018-06-04T05:05:56.810Z,18.43
2018-06-04T05:06:57.534Z,18.47
2018-06-04T05:07:58.256Z,18.41
2018-06-04T05:08:58.976Z,18.44
2018-06-04T05:09:59.693Z,18.49
2018-06-04T05:11:00.412Z,18.65
2018-06-04T05:12:01.144Z,18.60
2018-06-04T05:13:01.863Z,18.53
2018-06-04T05:14:02.583Z,18.60
2018-06-04T05:15:03.315Z,18.70
2018-06-04T05:16:04.036Z,18.74
2018-06-04T05:17:04.756Z,18.77
2018-06-04T05:18:05.474Z,18.75
2018-06-04T05:19:06.191Z,18.65
2018-06-04T05:20:06.909Z,18.78
2018-06-04T05:21:07.631Z,18.77
2018-06-04T05:22:08.360Z,18.77
2018-06-04T05:23:09.079Z,18.81
2018-06-04T05:24:09.811Z,18.84
2018-06-04T05:25:10.531Z,18.86
2018-06-04T05:26:11.251Z,18.93
2018-06-04T05:27:11.983Z,18.99
2018-06-04T05:28:12.703Z,19.07
2018-06-04T05:29:13.422Z,19.04
2018-06-04T05:30:14.140Z,19.15
2018-06-04T05:31:14.860Z,19.08
2018-06-04T05:32:15.582Z,19.15
2018-06-04T05:33:16.302Z,19.18
2018-06-04T05:34:17.025Z,19.15
2018-06-04T05:35:17.746Z,19.26
2018-06-04T05:36:18.478Z,19.24
2018-06-04T05:37:19.199Z,19.18
2018-06-04T05:38:19.921Z,19.19
2018-06-04T05:39:20.642Z,19.27
2018-06-04T05:40:21.364Z,19.29
2018-06-04T05:41:22.083Z,19.22
2018-06-04T05:42:22.821Z,19.29
2018-06-04T05:43:23.524Z,19.40
2018-06-04T05:44:24.248Z,19.39
2018-06-04T05:45:24.979Z,19.41
2018-06-04T05:46:25.699Z,19.45
2018-06-04T05:47:26.432Z,19.51
2018-06-04T05:48:27.166Z,19.55
2018-06-04T05:49:27.888Z,19.59
2018-06-04T05:50:28.620Z,19.64
2018-06-04T05:51:29.339Z,19.62
2018-06-04T05:52:30.061Z,19.64
2018-06-04T05:53:30.783Z,19.71
2018-06-04T05:54:31.505Z,19.85
2018-06-04T05:55:32.224Z,19.85
2018-06-04T05:56:32.944Z,19.89
2018-06-04T05:57:33.667Z,20.00
2018-06-04T05:58:34.385Z,19.96
2018-06-04T05:59:35.108Z,20.07
2018-06-04T06:00:35.828Z,20.14
2018-06-04T06:01:36.550Z,20.24
2018-06-04T06:02:37.272Z,20.19
2018-06-04T06:03:37.994Z,20.32
2018-06-04T06:04:38.714Z,20.48
2018-06-04T06:05:39.437Z,20.55
2018-06-04T06:06:40.159Z,20.58
2018-06-04T06:07:40.880Z,20.69
2018-06-04T06:08:41.603Z,20.66
2018-06-04T06:09:42.324Z,20.78
2018-06-04T06:10:43.044Z,20.80
2018-06-04T06:11:43.777Z,20.81
2018-06-04T06:12:44.499Z,20.81
2018-06-04T06:13:45.227Z,20.87
2018-06-04T06:14:45.946Z,20.82
2018-06-04T06:15:46.667Z,20.90
2018-06-04T06:16:47.390Z,20.93
2018-06-04T06:17:48.109Z,21.00
2018-06-04T06:18:48.831Z,20.93
2018-06-04T06:19:49.616Z,20.96
2018-06-04T06:20:50.279Z,20.99
2018-06-04T06:21:51.011Z,21.03
2018-06-04T06:22:51.732Z,21.12
2018-06-04T06:23:52.457Z,21.02
2018-06-04T06:24:53.183Z,21.14
2018-06-04T06:25:53.899Z,21.02
2018-06-04T06:26:54.620Z,21.15
2018-06-04T06:27:55.341Z,21.30
2018-06-04T06:28:56.074Z,21.29
2018-06-04T06:29:56.795Z,21.18
2018-06-04T06:30:57.519Z,21.39
2018-06-04T06:31:58.239Z,21.30
2018-06-04T06:32:58.960Z,21.40
2018-06-04T06:33:59.681Z,21.42
2018-06-04T06:35:00.404Z,21.46
2018-06-04T06:36:01.126Z,21.55
2018-06-04T06:37:01.850Z,21.61
2018-06-04T06:38:02.573Z,21.66
2018-06-04T06:39:03.296Z,21.73
2018-06-04T06:40:04.017Z,21.72
2018-06-04T06:41:04.739Z,21.76
2018-06-04T06:42:05.461Z,21.83
2018-06-04T06:43:06.182Z,21.77
2018-06-04T06:44:06.905Z,21.91
2018-06-04T06:45:07.628Z,21.95
2018-06-04T06:46:08.351Z,22.04
2018-06-04T06:47:09.075Z,22.06
2018-06-04T06:48:09.799Z,22.10
2018-06-04T06:49:10.524Z,22.07
2018-06-04T06:50:11.282Z,22.10
2018-06-04T06:51:11.976Z,22.10
2018-06-04T06:52:12.701Z,22.17
2018-06-04T06:53:13.427Z,22.18
2018-06-04T06:54:14.151Z,22.08
2018-06-04T06:55:14.877Z,22.18
2018-06-04T06:56:15.606Z,22.11
2018-06-04T06:57:16.328Z,22.18
2018-06-04T06:58:17.050Z,22.18
2018-06-04T06:59:17.775Z,22.25
2018-06-04T07:00:18.500Z,22.32
2018-06-04T07:01:19.221Z,22.18
2018-06-04T07:02:19.947Z,22.28
2018-06-04T07:03:20.669Z,22.15
2018-06-04T07:04:21.404Z,22.29
2018-06-04T07:05:22.141Z,22.33
2018-06-04T07:06:22.871Z,22.26
2018-06-04T07:07:23.604Z,22.32
2018-06-04T07:08:24.331Z,22.38
2018-06-04T07:09:25.058Z,22.41
2018-06-04T07:10:25.783Z,22.50
2018-06-04T07:11:26.503Z,22.51
2018-06-04T07:12:27.227Z,22.48
2018-06-04T07:13:27.951Z,22.54
2018-06-04T07:14:28.797Z,22.48
2018-06-04T07:15:29.412Z,22.55
2018-06-04T07:16:30.140Z,22.59
2018-06-04T07:17:30.877Z,22.54
2018-06-04T07:18:31.624Z,22.63
2018-06-04T07:19:32.334Z,22.60
2018-06-04T07:20:33.066Z,22.60
2018-06-04T07:21:33.794Z,22.59
2018-06-04T07:22:34.519Z,22.59
2018-06-04T07:23:35.248Z,22.59
2018-06-04T07:24:35.970Z,22.48
2018-06-04T07:25:36.697Z,22.62
2018-06-04T07:26:37.433Z,22.57
2018-06-04T07:27:38.158Z,22.55
2018-06-04T07:28:38.888Z,22.76
2018-06-04T07:29:39.621Z,22.80
2018-06-04T07:30:40.347Z,22.90
2018-06-04T07:31:41.072Z,22.91
2018-06-04T07:32:41.799Z,22.94
2018-06-04T07:33:42.538Z,23.12
2018-06-04T07:34:43.263Z,23.18
2018-06-04T07:35:43.992Z,23.27
2018-06-04T07:36:44.731Z,23.32
2018-06-04T07:37:45.462Z,23.34
2018-06-04T07:38:46.184Z,23.36
2018-06-04T07:39:46.914Z,23.39
2018-06-04T07:40:47.641Z,23.50
2018-06-04T07:41:48.369Z,23.50
2018-06-04T07:42:49.098Z,23.62
2018-06-04T07:43:49.841Z,23.66
2018-06-04T07:44:50.569Z,23.98
2018-06-04T07:45:51.301Z,23.92
2018-06-04T07:46:52.040Z,24.02
2018-06-04T07:47:52.767Z,24.18
2018-06-04T07:48:53.495Z,24.23
2018-06-04T07:49:54.297Z,24.29
2018-06-04T07:50:54.954Z,24.24
2018-06-04T07:51:55.681Z,24.43
2018-06-04T07:52:56.410Z,24.45
2018-06-04T07:53:57.149Z,24.63
2018-06-04T07:54:57.892Z,24.65
2018-06-04T07:55:58.621Z,24.74
2018-06-04T07:56:59.350Z,24.88
2018-06-04T07:58:00.082Z,25.18
2018-06-04T07:59:00.812Z,25.31
2018-06-04T08:00:01.544Z,25.29
2018-06-04T08:01:02.274Z,25.28
2018-06-04T08:02:03.017Z,25.51
2018-06-04T08:03:03.747Z,25.63
2018-06-04T08:04:04.477Z,25.47
2018-06-04T08:05:05.209Z,25.62
2018-06-04T08:06:05.941Z,25.81
2018-06-04T08:07:06.673Z,26.03
2018-06-04T08:08:07.403Z,26.03
2018-06-04T08:09:08.136Z,26.18
2018-06-04T08:10:08.945Z,26.31
2018-06-04T08:11:09.599Z,26.44
2018-06-04T08:12:10.334Z,26.66
2018-06-04T08:13:11.066Z,26.36
2018-06-04T08:14:11.800Z,26.55
2018-06-04T08:15:12.547Z,26.43
2018-06-04T08:16:13.285Z,26.66
2018-06-04T08:17:14.015Z,26.83
2018-06-04T08:18:14.748Z,26.78
2018-06-04T08:19:15.483Z,26.92
2018-06-04T08:20:16.217Z,27.05
2018-06-04T08:21:16.951Z,27.02
2018-06-04T08:22:17.697Z,27.29
2018-06-04T08:23:18.433Z,27.25
2018-06-04T08:24:19.169Z,27.30
2018-06-04T08:25:19.905Z,27.30
2018-06-04T08:26:20.639Z,27.47
2018-06-04T08:27:21.372Z,27.52
2018-06-04T08:28:22.108Z,27.70
2018-06-04T08:29:22.915Z,27.77
2018-06-04T08:30:23.602Z,28.02
2018-06-04T08:31:24.339Z,28.11
2018-06-04T08:32:25.090Z,28.25
2018-06-04T08:33:25.827Z,28.25
2018-06-04T08:34:26.560Z,27.78
2018-06-04T08:35:27.294Z,27.05
2018-06-04T08:36:28.033Z,27.02
2018-06-04T08:37:28.772Z,27.30
2018-06-04T08:38:29.571Z,27.17
2018-06-04T08:39:30.255Z,27.49
2018-06-04T08:40:30.993Z,27.55
2018-06-04T08:41:31.730Z,27.82
2018-06-04T08:42:32.471Z,28.07
2018-06-04T08:43:33.214Z,28.27
2018-06-04T08:44:33.956Z,28.39
2018-06-04T08:45:34.709Z,28.63
2018-06-04T08:46:35.447Z,28.76
2018-06-04T08:47:36.192Z,28.75
2018-06-04T08:48:36.932Z,28.64
2018-06-04T08:49:37.671Z,28.67
2018-06-04T08:50:38.414Z,28.37
2018-06-04T08:51:39.163Z,28.47
2018-06-04T08:52:39.897Z,28.41
2018-06-04T08:53:40.637Z,28.47
2018-06-04T08:54:41.375Z,28.39
2018-06-04T08:55:42.113Z,28.67
2018-06-04T08:56:42.868Z,28.39
2018-06-04T08:57:43.613Z,28.49
2018-06-04T08:58:44.354Z,28.88
2018-06-04T08:59:45.102Z,29.31
2018-06-04T09:00:45.844Z,29.44
2018-06-04T09:01:46.630Z,29.68
2018-06-04T09:02:47.347Z,29.97
2018-06-04T09:03:48.095Z,29.79
2018-06-04T09:04:48.838Z,29.81
2018-06-04T09:05:49.581Z,29.69
2018-06-04T09:06:50.323Z,29.82
2018-06-04T09:07:51.065Z,29.88
2018-06-04T09:08:51.817Z,30.23
2018-06-04T09:09:52.613Z,30.13
2018-06-04T09:10:53.301Z,30.34
2018-06-04T09:11:54.054Z,30.50
2018-06-04T09:12:54.805Z,30.46
2018-06-04T09:13:55.550Z,30.51
2018-06-04T09:14:56.293Z,30.43
2018-06-04T09:15:57.036Z,30.51
2018-06-04T09:16:57.791Z,30.57
2018-06-04T09:17:58.546Z,29.97
2018-06-04T09:18:59.288Z,29.56
2018-06-04T09:20:00.033Z,29.97
2018-06-04T09:21:00.777Z,30.34
2018-06-04T09:22:01.559Z,30.62
2018-06-04T09:23:02.275Z,30.66
2018-06-04T09:24:03.020Z,30.73
2018-06-04T09:25:04.406Z,30.92
2018-06-04T09:26:04.502Z,31.03
2018-06-04T09:27:05.247Z,31.34
2018-06-04T09:28:06.004Z,31.64
2018-06-04T09:29:06.746Z,32.08
2018-06-04T09:30:07.488Z,32.21
2018-06-04T09:31:08.237Z,32.22
2018-06-04T09:32:08.991Z,32.19
2018-06-04T09:33:09.734Z,32.22
2018-06-04T09:34:10.473Z,32.22
2018-06-04T09:35:11.214Z,32.07
2018-06-04T09:36:11.968Z,31.55
2018-06-04T09:37:12.707Z,31.42
2018-06-04T09:38:13.460Z,31.21
2018-06-04T09:39:14.205Z,31.00
2018-06-04T09:40:14.941Z,30.69
2018-06-04T09:41:15.694Z,30.72
2018-06-04T09:42:16.447Z,30.62
2018-06-04T09:43:17.190Z,30.78
2018-06-04T09:44:17.927Z,30.97
2018-06-04T09:45:18.670Z,31.20
2018-06-04T09:46:19.417Z,30.88
2018-06-04T09:47:20.161Z,31.05
2018-06-04T09:48:20.907Z,31.29
2018-06-04T09:49:21.657Z,31.78
2018-06-04T09:50:22.399Z,31.94
2018-06-04T09:51:23.144Z,31.92
2018-06-04T09:52:23.889Z,32.21
2018-06-04T09:53:24.646Z,32.36
2018-06-04T09:54:25.394Z,32.60
2018-06-04T09:55:26.149Z,32.67
2018-06-04T09:56:26.901Z,33.14
2018-06-04T09:57:27.652Z,33.09
2018-06-04T09:58:28.394Z,33.04
2018-06-04T09:59:29.134Z,33.11
2018-06-04T10:00:29.874Z,33.19
2018-06-04T10:01:30.617Z,33.08
2018-06-04T10:02:31.359Z,33.32
2018-06-04T10:03:32.114Z,33.49
2018-06-04T10:04:32.867Z,33.24
2018-06-04T10:05:33.605Z,32.80
2018-06-04T10:06:34.371Z,32.11
2018-06-04T10:07:35.124Z,31.93
2018-06-04T10:08:35.897Z,31.80
2018-06-04T10:09:36.604Z,31.33
2018-06-04T10:10:37.345Z,31.06
2018-06-04T10:11:38.085Z,30.81
2018-06-04T10:12:38.825Z,30.99
2018-06-04T10:13:39.567Z,30.91
2018-06-04T10:14:40.309Z,31.21
2018-06-04T10:15:41.063Z,31.29
2018-06-04T10:16:41.806Z,31.43
2018-06-04T10:17:42.547Z,31.49
2018-06-04T10:18:43.288Z,31.66
2018-06-04T10:19:44.044Z,31.81
2018-06-04T10:20:44.787Z,31.56
2018-06-04T10:21:45.520Z,31.55
2018-06-04T10:22:46.257Z,31.54
2018-06-04T10:23:47.009Z,31.36
2018-06-04T10:24:47.759Z,30.88
2018-06-04T10:25:48.510Z,30.78
2018-06-04T10:26:49.261Z,30.50
2018-06-04T10:27:50.007Z,30.10
2018-06-04T10:28:50.763Z,29.88
2018-06-04T10:29:51.498Z,29.79
2018-06-04T10:30:52.240Z,29.82
2018-06-04T10:31:52.977Z,29.93
2018-06-04T10:32:53.733Z,29.90
2018-06-04T10:33:54.473Z,30.55
2018-06-04T10:34:55.224Z,30.80
2018-06-04T10:35:55.966Z,31.00
2018-06-04T10:36:56.711Z,30.96
2018-06-04T10:37:57.450Z,30.96
2018-06-04T10:38:58.202Z,31.07
2018-06-04T10:39:58.952Z,31.17
2018-06-04T10:40:59.696Z,30.96
2018-06-04T10:42:00.443Z,30.63
2018-06-04T10:43:01.185Z,30.44
2018-06-04T10:44:01.927Z,29.87
2018-06-04T10:45:02.674Z,30.16
2018-06-04T10:46:03.408Z,30.47
2018-06-04T10:47:04.149Z,30.50
2018-06-04T10:48:04.888Z,30.48
2018-06-04T10:49:05.633Z,30.34
2018-06-04T10:50:06.383Z,30.50
2018-06-04T10:51:07.126Z,30.78
2018-06-04T10:52:07.865Z,30.83
2018-06-04T10:53:08.606Z,30.70
2018-06-04T10:54:09.360Z,30.87
2018-06-04T10:55:10.099Z,30.80
2018-06-04T10:56:10.837Z,30.54
2018-06-04T10:57:11.576Z,30.31
2018-06-04T10:58:12.330Z,30.31
2018-06-04T10:59:13.087Z,29.97
2018-06-04T11:00:13.829Z,29.57
2018-06-04T11:01:14.571Z,30.02
2018-06-04T11:02:15.309Z,30.15
2018-06-04T11:03:16.052Z,30.25
2018-06-04T11:04:16.791Z,30.46
2018-06-04T11:05:17.533Z,30.47
2018-06-04T11:06:18.273Z,30.70
2018-06-04T11:07:19.029Z,31.24
2018-06-04T11:08:19.768Z,31.21
2018-06-04T11:09:20.509Z,31.33
2018-06-04T11:10:21.248Z,31.81
2018-06-04T11:11:21.989Z,31.97
2018-06-04T11:12:22.740Z,31.71
2018-06-04T11:13:23.479Z,31.66
2018-06-04T11:14:24.238Z,31.12
2018-06-04T11:15:24.976Z,30.96
2018-06-04T11:16:25.719Z,30.54
2018-06-04T11:17:26.460Z,30.70
2018-06-04T11:18:27.199Z,30.59
2018-06-04T11:19:27.958Z,30.59
2018-06-04T11:20:28.703Z,30.63
2018-06-04T11:21:29.445Z,30.96
2018-06-04T11:22:30.185Z,31.24
2018-06-04T11:23:30.937Z,31.70
2018-06-04T11:24:31.682Z,31.62
2018-06-04T11:25:32.424Z,31.81
2018-06-04T11:26:33.165Z,32.01
2018-06-04T11:27:33.906Z,32.37
2018-06-04T11:28:34.645Z,32.34
2018-06-04T11:29:35.390Z,32.04
2018-06-04T11:30:36.128Z,32.26
2018-06-04T11:31:36.868Z,32.55
2018-06-04T11:32:37.608Z,32.70
2018-06-04T11:33:38.349Z,32.03
2018-06-04T11:34:39.090Z,32.03
2018-06-04T11:35:39.835Z,31.90
2018-06-04T11:36:40.570Z,31.64
2018-06-04T11:37:41.307Z,31.18
2018-06-04T11:38:42.047Z,30.78
2018-06-04T11:39:42.790Z,30.83
2018-06-04T11:40:43.527Z,31.14
2018-06-04T11:41:44.277Z,31.44
2018-06-04T11:42:45.032Z,31.44
2018-06-04T11:43:45.771Z,31.40
2018-06-04T11:44:46.512Z,31.77
2018-06-04T11:45:47.255Z,31.87
2018-06-04T11:46:47.994Z,32.15
2018-06-04T11:47:48.733Z,32.40
2018-06-04T11:48:49.474Z,32.77
2018-06-04T11:49:50.218Z,32.78
2018-06-04T11:50:50.968Z,32.82
2018-06-04T11:51:51.708Z,32.65
2018-06-04T11:52:52.453Z,32.46
2018-06-04T11:53:53.202Z,32.41
2018-06-04T11:54:53.943Z,32.30
2018-06-04T11:55:54.683Z,31.92
2018-06-04T11:56:55.434Z,31.74
2018-06-04T11:57:56.180Z,31.74
2018-06-04T11:58:56.926Z,31.87
2018-06-04T11:59:57.664Z,31.84
2018-06-04T12:00:58.415Z,32.14
2018-06-04T12:01:59.157Z,32.03
2018-06-04T12:02:59.909Z,31.94
2018-06-04T12:04:00.649Z,32.12
2018-06-04T12:05:01.390Z,32.14
2018-06-04T12:06:02.131Z,32.34
2018-06-04T12:07:02.871Z,32.38
2018-06-04T12:08:03.613Z,32.51
2018-06-04T12:09:04.351Z,32.77
2018-06-04T12:10:05.105Z,32.71
2018-06-04T12:11:05.856Z,32.92
2018-06-04T12:12:06.605Z,32.96
2018-06-04T12:13:07.349Z,33.08
2018-06-04T12:14:08.087Z,33.32
2018-06-04T12:15:08.830Z,33.40
2018-06-04T12:16:09.573Z,33.12
2018-06-04T12:17:10.312Z,32.77
2018-06-04T12:18:11.051Z,33.14
2018-06-04T12:19:11.788Z,33.24
2018-06-04T12:20:12.527Z,33.64
2018-06-04T12:21:13.279Z,33.71
2018-06-04T12:22:14.017Z,34.08
2018-06-04T12:23:14.760Z,34.11
2018-06-04T12:24:15.495Z,33.96
2018-06-04T12:25:16.249Z,34.11
2018-06-04T12:26:16.985Z,34.38
2018-06-04T12:27:17.722Z,34.27
2018-06-04T12:28:18.460Z,34.55
2018-06-04T12:29:19.201Z,34.67
2018-06-04T12:30:19.949Z,34.39
2018-06-04T12:31:20.706Z,34.51
2018-06-04T12:32:21.427Z,34.78
2018-06-04T12:33:22.169Z,34.58
2018-06-04T12:34:22.919Z,34.81
2018-06-04T12:35:23.656Z,34.81
2018-06-04T12:36:24.405Z,34.60
2018-06-04T12:37:25.144Z,34.36
2018-06-04T12:38:25.895Z,34.08
2018-06-04T12:39:26.630Z,33.92
2018-06-04T12:40:27.371Z,33.94
2018-06-04T12:41:28.107Z,33.89
2018-06-04T12:42:28.846Z,33.81
2018-06-04T12:43:29.582Z,34.10
2018-06-04T12:44:30.323Z,33.98
2018-06-04T12:45:31.066Z,34.13
2018-06-04T12:46:31.812Z,34.39
2018-06-04T12:47:32.550Z,34.24
2018-06-04T12:48:33.298Z,34.50
2018-06-04T12:49:34.033Z,34.66
2018-06-04T12:50:34.774Z,34.66
2018-06-04T12:51:35.510Z,34.62
2018-06-04T12:52:36.249Z,34.58
2018-06-04T12:53:36.985Z,34.81
2018-06-04T12:54:37.725Z,34.85
2018-06-04T12:55:38.465Z,34.96
2018-06-04T12:56:39.198Z,35.10
2018-06-04T12:57:39.934Z,35.23
2018-06-04T12:58:40.683Z,35.27
2018-06-04T12:59:41.421Z,35.07
2018-06-04T13:00:42.159Z,34.43
2018-06-04T13:01:42.899Z,34.25
2018-06-04T13:02:43.643Z,33.81